To NAV CANADA Home Page Login to a new session Search on AWWS site Feedback and Comments Disclaimer Vers la page française équivalente Tips FAQ What's new on the site To the Forecasts and Observations / NOTAM section To "File a Flight Plan" website Publications and other links Update of the User's profile FIC Telephone Numbers My Weather Data Folder Route Weather Data Regional Weather Data Local Weather Data To the Forecasts and Observations / NOTAM section
Request Generated 03/28/2017 at 02:23:03 UTC . Weather information available at that time is displayed.

METAR/TAF

SUDBURY/ON    

METAR CYSB 280200Z 01008KT 5SM -RA BR SCT003 BKN007 OVC037 01/01
A2991 RMK ST3SF3SC2 SLP146=
SPECI CYSB 280130Z 01007KT 10SM -RA BKN003 BKN009 OVC038 02/01 A2991
RMK SF5SF1SC2 SLP144=
METAR CYSB 280100Z 01006KT 15SM -RA OVC007 02/01 A2990 RMK SC8
SLP142=
METAR CYSB 280000Z 35007KT 15SM -RA OVC008 02/01 A2988 RMK SC8
SLP135=

TAF CYSB 280141Z 2802/2814 01007KT 4SM BR BKN003 OVC010 TEMPO
2802/2808 6SM -RA BR SCT003 OVC010
FM280800 35005KT P6SM OVC012 TEMPO 2808/2814 OVC007
RMK NXT FCST BY 280800Z=
Your time UTC time
Weather data provided by Environment Canada and NAV CANADA